Historique des mesures à Cassis (13260), France
Quotidien Résumé Octobre 10, 2017 Unités:  Métrique    US   Métrique/US
« Précédent (Jour)
Suivant (Jour) »
Quotidien Hebdomadaire Mensuel Annuel Période au choix
  Maximum: Minimum: Moyenne:
Température: TemperatureC °C 13.1 °C 16.3 °C
Point de rosée: DewpointC °C 5.9 °C 8.9 °C
Humidité: Humidity % 54 % 58 %
Vitesse du vent: 0 km/h 0 km/h 3.9 km/h
Rafales: 0 km/h - -
Vent:- - SSE
Pression: PressurehPa hPa 1013.4 hPa -
Précipitations: 0.0 mm    
Historical Graphs
 
 
Mesures pour : Octobre 10, 2017
Heure Temperature Point de rosée Pression Vent Vitesse du vent Rafales Humidité Pluie (par heure) Conditions
TemperatureC °C DewpointC °C PressurehPa hPa Calm     Humidity % HourlyPrecipMM mm SoftwareType W/m2
00:11 16.2 °C 6.8 °C 1013.8 hPa North 8 km/h 8 km/h 54 % 0.0 mm open2300-1.11 W/m2
01:11 15.6 °C 6.8 °C 1013.8 hPa NNE 4.7 km/h 6.4 km/h 56 % 0.0 mm open2300-1.11 W/m2
02:11 15.4 °C 6.7 °C 1013.4 hPa NNW 5.6 km/h 5.6 km/h 56 % 0.0 mm open2300-1.11 W/m2
03:11 14.9 °C 6.7 °C 1013.8 hPa ENE 9.8 km/h 9.8 km/h 58 % 0.0 mm open2300-1.11 W/m2
04:11 14.7 °C 6.8 °C 1013.8 hPa WNW 8 km/h 23.8 km/h 59 % 0.0 mm open2300-1.11 W/m2
05:11 14.6 °C 6.4 °C 1013.4 hPa NNE 5.6 km/h 7.6 km/h 58 % 0.0 mm open2300-1.11 W/m2
06:11 14.1 °C 6.2 °C 1013.8 hPa ENE 3.4 km/h 3.4 km/h 59 % 0.0 mm open2300-1.11 W/m2
07:11 13.3 °C 5.9 °C 1014.1 hPa North 1.8 km/h 8 km/h 61 % 0.0 mm open2300-1.11 W/m2
08:11 13.1 °C 6.2 °C 1014.1 hPa Calm   8.9 km/h 63 % 0.0 mm open2300-1.11 W/m2
09:11 14.9 °C 6.9 °C 1014.8 hPa NNW 6.4 km/h 6.4 km/h 59 % 0.0 mm open2300-1.11 W/m2
10:11 16.4 °C 8.4 °C 1015.5 hPa Calm     59 % 0.0 mm open2300-1.11 W/m2
11:11 17.9 °C 9.7 °C 1015.8 hPa Calm   5.6 km/h 59 % 0.0 mm open2300-1.11 W/m2
12:11 19.6 °C 11.4 °C 1016.1 hPa SE 2.9 km/h 6.9 km/h 59 % 0.0 mm open2300-1.11 W/m2
13:11 20.3 °C 11.8 °C 1016.1 hPa SE 4.7 km/h 4.7 km/h 58 % 0.0 mm open2300-1.11 W/m2
14:11 20.5 °C 12.7 °C 1016.1 hPa SE 4.2 km/h 4.2 km/h 61 % 0.0 mm open2300-1.11 W/m2
15:11 20.6 °C 12.8 °C 1015.8 hPa SSE 5.6 km/h 19.2 km/h 61 % 0.0 mm open2300-1.11 W/m2
16:11 20.6 °C 12.8 °C 1015.8 hPa SE 8 km/h 8 km/h 61 % 0.0 mm open2300-1.11 W/m2
17:11 20.4 °C 12.6 °C 1015.8 hPa SSW 4.7 km/h 4.7 km/h 61 % 0.0 mm open2300-1.11 W/m2
18:11 19.8 °C 12.5 °C 1016.1 hPa SSE 1.8 km/h 7.6 km/h 63 % 0.0 mm open2300-1.11 W/m2
19:11 18.6 °C 11.9 °C 1016.5 hPa Calm     65 % 0.0 mm open2300-1.11 W/m2
20:11 17.2 °C 11.2 °C 1016.8 hPa Calm     68 % 0.0 mm open2300-1.11 W/m2
21:11 16.3 °C 10.4 °C 1017.2 hPa NNW 4.2 km/h 5.1 km/h 68 % 0.0 mm open2300-1.11 W/m2
22:11 15.8 °C 9.5 °C 1017.8 hPa NNW 5.6 km/h 5.6 km/h 66 % 0.0 mm open2300-1.11 W/m2
23:11 15.6 °C 8.8 °C 1017.8 hPa Calm   4.2 km/h 64 % 0.0 mm open2300-1.11 W/m2
Observations météo à CASSIS
WU-History script by Weather Underground - 1 mb